sensor_id;sensor_type;location;lat;lon;timestamp;pressure;altitude;pressure_sealevel;temperature;humidity
11349;BME280;5729;43.570;27.826;2023-08-06T00:02:17;97947.19;;;25.55;100.00
11349;BME280;5729;43.570;27.826;2023-08-06T00:04:43;97929.13;;;25.34;100.00
11349;BME280;5729;43.570;27.826;2023-08-06T00:07:08;97962.69;;;25.53;100.00
11349;BME280;5729;43.570;27.826;2023-08-06T00:09:34;97954.84;;;25.46;100.00
11349;BME280;5729;43.570;27.826;2023-08-06T00:11:59;97947.81;;;25.45;100.00
11349;BME280;5729;43.570;27.826;2023-08-06T00:14:24;97939.31;;;25.48;100.00
11349;BME280;5729;43.570;27.826;2023-08-06T00:16:50;97945.84;;;25.51;100.00
11349;BME280;5729;43.570;27.826;2023-08-06T00:19:15;97944.97;;;25.59;100.00
11349;BME280;5729;43.570;27.826;2023-08-06T00:21:41;97931.66;;;25.58;100.00
11349;BME280;5729;43.570;27.826;2023-08-06T00:24:06;97927.38;;;25.57;100.00
11349;BME280;5729;43.570;27.826;2023-08-06T00:26:31;97925.66;;;25.59;100.00
11349;BME280;5729;43.570;27.826;2023-08-06T00:28:57;97918.03;;;25.49;100.00
11349;BME280;5729;43.570;27.826;2023-08-06T00:31:22;97924.78;;;25.48;100.00
11349;BME280;5729;43.570;27.826;2023-08-06T00:33:48;97916.50;;;25.48;100.00
11349;BME280;5729;43.570;27.826;2023-08-06T00:36:13;97906.72;;;25.47;100.00
11349;BME280;5729;43.570;27.826;2023-08-06T00:38:39;97904.44;;;25.45;100.00
11349;BME280;5729;43.570;27.826;2023-08-06T00:41:04;97891.00;;;25.32;100.00
11349;BME280;5729;43.570;27.826;2023-08-06T00:43:30;97897.34;;;25.39;100.00
11349;BME280;5729;43.570;27.826;2023-08-06T00:45:55;97895.06;;;25.37;100.00
11349;BME280;5729;43.570;27.826;2023-08-06T00:48:21;97887.16;;;25.24;100.00
11349;BME280;5729;43.570;27.826;2023-08-06T00:50:47;97886.38;;;25.24;100.00
11349;BME280;5729;43.570;27.826;2023-08-06T00:53:12;97870.03;;;25.20;100.00
11349;BME280;5729;43.570;27.826;2023-08-06T00:55:38;97870.03;;;25.20;100.00
11349;BME280;5729;43.570;27.826;2023-08-06T00:58:04;97872.81;;;25.20;100.00
11349;BME280;5729;43.570;27.826;2023-08-06T01:00:30;97864.63;;;25.26;100.00
11349;BME280;5729;43.570;27.826;2023-08-06T01:02:56;97862.13;;;25.28;100.00
11349;BME280;5729;43.570;27.826;2023-08-06T01:05:22;97859.09;;;25.26;100.00
11349;BME280;5729;43.570;27.826;2023-08-06T01:13:42;97863.28;;;25.21;100.00
11349;BME280;5729;43.570;27.826;2023-08-06T01:16:11;97856.53;;;25.22;100.00
11349;BME280;5729;43.570;27.826;2023-08-06T01:18:37;97864.34;;;25.24;100.00
11349;BME280;5729;43.570;27.826;2023-08-06T01:21:04;97871.56;;;25.21;100.00
11349;BME280;5729;43.570;27.826;2023-08-06T01:23:29;97876.13;;;25.24;100.00
11349;BME280;5729;43.570;27.826;2023-08-06T01:29:07;97877.28;;;25.18;100.00
11349;BME280;5729;43.570;27.826;2023-08-06T01:31:37;97868.59;;;25.25;100.00
11349;BME280;5729;43.570;27.826;2023-08-06T01:34:05;97871.41;;;25.30;100.00
11349;BME280;5729;43.570;27.826;2023-08-06T01:36:31;97860.22;;;25.40;100.00
11349;BME280;5729;43.570;27.826;2023-08-06T01:38:57;97864.09;;;25.48;100.00
11349;BME280;5729;43.570;27.826;2023-08-06T01:41:23;97863.38;;;25.53;100.00
11349;BME280;5729;43.570;27.826;2023-08-06T01:43:48;97859.66;;;25.56;100.00
11349;BME280;5729;43.570;27.826;2023-08-06T01:46:14;97856.56;;;25.48;100.00
11349;BME280;5729;43.570;27.826;2023-08-06T01:48:39;97842.22;;;25.44;100.00
11349;BME280;5729;43.570;27.826;2023-08-06T01:51:05;97835.28;;;25.49;100.00
11349;BME280;5729;43.570;27.826;2023-08-06T01:53:31;97835.50;;;25.51;100.00
11349;BME280;5729;43.570;27.826;2023-08-06T01:55:57;97818.84;;;25.40;100.00
11349;BME280;5729;43.570;27.826;2023-08-06T01:58:22;97817.19;;;25.48;100.00
11349;BME280;5729;43.570;27.826;2023-08-06T02:00:48;97815.47;;;25.50;100.00
11349;BME280;5729;43.570;27.826;2023-08-06T02:03:13;97807.69;;;25.49;100.00
11349;BME280;5729;43.570;27.826;2023-08-06T02:05:39;97816.72;;;25.49;100.00
11349;BME280;5729;43.570;27.826;2023-08-06T02:08:05;97813.88;;;25.44;100.00
11349;BME280;5729;43.570;27.826;2023-08-06T02:10:30;97816.38;;;25.42;100.00
11349;BME280;5729;43.570;27.826;2023-08-06T02:12:56;97818.75;;;25.28;100.00
11349;BME280;5729;43.570;27.826;2023-08-06T02:15:21;97814.22;;;25.25;100.00
11349;BME280;5729;43.570;27.826;2023-08-06T02:17:47;97821.25;;;25.26;100.00
11349;BME280;5729;43.570;27.826;2023-08-06T02:20:12;97822.97;;;25.24;100.00
11349;BME280;5729;43.570;27.826;2023-08-06T02:22:38;97831.03;;;25.27;100.00
11349;BME280;5729;43.570;27.826;2023-08-06T02:25:04;97822.69;;;25.22;100.00
11349;BME280;5729;43.570;27.826;2023-08-06T02:27:29;97823.63;;;25.13;100.00
11349;BME280;5729;43.570;27.826;2023-08-06T02:29:55;97818.31;;;25.10;100.00
11349;BME280;5729;43.570;27.826;2023-08-06T02:32:20;97818.56;;;25.12;100.00
11349;BME280;5729;43.570;27.826;2023-08-06T02:34:45;97807.28;;;25.10;100.00
11349;BME280;5729;43.570;27.826;2023-08-06T02:37:11;97802.25;;;25.08;100.00
11349;BME280;5729;43.570;27.826;2023-08-06T02:39:36;97802.25;;;25.08;100.00
11349;BME280;5729;43.570;27.826;2023-08-06T02:42:07;97801.47;;;25.08;100.00
11349;BME280;5729;43.570;27.826;2023-08-06T02:44:34;97817.75;;;25.06;100.00
11349;BME280;5729;43.570;27.826;2023-08-06T02:47:00;97810.19;;;25.01;100.00
11349;BME280;5729;43.570;27.826;2023-08-06T02:49:25;97812.19;;;25.00;100.00
11349;BME280;5729;43.570;27.826;2023-08-06T02:51:51;97819.97;;;25.02;100.00
11349;BME280;5729;43.570;27.826;2023-08-06T02:54:17;97831.19;;;24.98;100.00
11349;BME280;5729;43.570;27.826;2023-08-06T02:56:44;97822.16;;;24.98;100.00
11349;BME280;5729;43.570;27.826;2023-08-06T02:59:10;97819.13;;;24.95;100.00
11349;BME280;5729;43.570;27.826;2023-08-06T03:01:36;97818.44;;;24.80;100.00
11349;BME280;5729;43.570;27.826;2023-08-06T03:04:01;97816.63;;;24.77;100.00
11349;BME280;5729;43.570;27.826;2023-08-06T03:06:27;97812.16;;;24.80;100.00
11349;BME280;5729;43.570;27.826;2023-08-06T03:08:52;97818.63;;;24.77;100.00
11349;BME280;5729;43.570;27.826;2023-08-06T03:11:18;97818.91;;;24.79;100.00
11349;BME280;5729;43.570;27.826;2023-08-06T03:13:43;97820.72;;;24.82;100.00
11349;BME280;5729;43.570;27.826;2023-08-06T03:16:09;97801.69;;;24.64;100.00
11349;BME280;5729;43.570;27.826;2023-08-06T03:18:34;97804.03;;;24.71;100.00
11349;BME280;5729;43.570;27.826;2023-08-06T03:20:59;97806.81;;;24.71;100.00
11349;BME280;5729;43.570;27.826;2023-08-06T03:23:25;97814.03;;;24.68;100.00
11349;BME280;5729;43.570;27.826;2023-08-06T03:25:50;97816.34;;;24.75;100.00
11349;BME280;5729;43.570;27.826;2023-08-06T03:28:16;97812.09;;;24.74;100.00
11349;BME280;5729;43.570;27.826;2023-08-06T03:30:41;97806.56;;;24.74;100.00
11349;BME280;5729;43.570;27.826;2023-08-06T03:33:07;97809.28;;;24.69;100.00
11349;BME280;5729;43.570;27.826;2023-08-06T03:35:32;97809.34;;;24.74;100.00
11349;BME280;5729;43.570;27.826;2023-08-06T03:37:58;97811.59;;;24.76;100.00
11349;BME280;5729;43.570;27.826;2023-08-06T03:40:23;97819.59;;;24.74;100.00
11349;BME280;5729;43.570;27.826;2023-08-06T03:42:49;97817.59;;;24.74;100.00
11349;BME280;5729;43.570;27.826;2023-08-06T03:45:14;97827.38;;;24.75;100.00
11349;BME280;5729;43.570;27.826;2023-08-06T03:47:40;97839.63;;;24.74;100.00
11349;BME280;5729;43.570;27.826;2023-08-06T03:50:06;97843.28;;;24.66;100.00
11349;BME280;5729;43.570;27.826;2023-08-06T03:52:31;97844.72;;;24.61;100.00
11349;BME280;5729;43.570;27.826;2023-08-06T03:54:57;97851.22;;;24.58;100.00
11349;BME280;5729;43.570;27.826;2023-08-06T03:57:22;97841.75;;;24.44;100.00
11349;BME280;5729;43.570;27.826;2023-08-06T03:59:48;97847.41;;;24.55;100.00
11349;BME280;5729;43.570;27.826;2023-08-06T04:02:13;97845.00;;;24.63;100.00
11349;BME280;5729;43.570;27.826;2023-08-06T04:04:39;97843.84;;;24.70;100.00
11349;BME280;5729;43.570;27.826;2023-08-06T04:07:04;97846.31;;;24.68;100.00
11349;BME280;5729;43.570;27.826;2023-08-06T04:09:30;97838.13;;;24.73;100.00
11349;BME280;5729;43.570;27.826;2023-08-06T04:11:55;97837.72;;;24.80;100.00
11349;BME280;5729;43.570;27.826;2023-08-06T04:14:21;97839.59;;;24.89;100.00
11349;BME280;5729;43.570;27.826;2023-08-06T04:16:47;97820.50;;;25.06;100.00
11349;BME280;5729;43.570;27.826;2023-08-06T04:19:12;97834.44;;;25.17;100.00
11349;BME280;5729;43.570;27.826;2023-08-06T04:21:38;97820.25;;;25.29;100.00
11349;BME280;5729;43.570;27.826;2023-08-06T04:24:04;97832.31;;;25.32;100.00
11349;BME280;5729;43.570;27.826;2023-08-06T04:26:29;97828.88;;;25.37;100.00
11349;BME280;5729;43.570;27.826;2023-08-06T04:28:55;97818.84;;;25.40;100.00
11349;BME280;5729;43.570;27.826;2023-08-06T04:31:21;97807.81;;;25.40;100.00
11349;BME280;5729;43.570;27.826;2023-08-06T04:33:46;97799.06;;;25.41;100.00
11349;BME280;5729;43.570;27.826;2023-08-06T04:36:12;97794.38;;;25.47;100.00
11349;BME280;5729;43.570;27.826;2023-08-06T04:38:39;97791.13;;;25.49;100.00
11349;BME280;5729;43.570;27.826;2023-08-06T04:41:06;97793.16;;;25.54;100.00
11349;BME280;5729;43.570;27.826;2023-08-06T04:43:32;97793.03;;;25.63;100.00
11349;BME280;5729;43.570;27.826;2023-08-06T04:45:57;97800.16;;;25.75;100.00
11349;BME280;5729;43.570;27.826;2023-08-06T04:48:23;97794.91;;;25.77;100.00
11349;BME280;5729;43.570;27.826;2023-08-06T04:50:50;97794.97;;;25.83;100.00
11349;BME280;5729;43.570;27.826;2023-08-06T04:53:15;97794.91;;;25.77;100.00
11349;BME280;5729;43.570;27.826;2023-08-06T04:55:41;97785.94;;;25.82;100.00
11349;BME280;5729;43.570;27.826;2023-08-06T04:58:12;97784.91;;;25.85;100.00
11349;BME280;5729;43.570;27.826;2023-08-06T05:00:38;97773.38;;;25.81;100.00
11349;BME280;5729;43.570;27.826;2023-08-06T05:03:03;97774.63;;;25.80;100.00
11349;BME280;5729;43.570;27.826;2023-08-06T05:05:29;97772.41;;;25.84;100.00
11349;BME280;5729;43.570;27.826;2023-08-06T05:07:55;97772.69;;;25.92;100.00
11349;BME280;5729;43.570;27.826;2023-08-06T05:10:26;97771.72;;;25.95;100.00
11349;BME280;5729;43.570;27.826;2023-08-06T05:12:52;97771.19;;;25.91;100.00
11349;BME280;5729;43.570;27.826;2023-08-06T05:15:18;97765.94;;;25.98;100.00
11349;BME280;5729;43.570;27.826;2023-08-06T05:17:43;97758.22;;;26.02;100.00
11349;BME280;5729;43.570;27.826;2023-08-06T05:20:09;97762.25;;;26.07;100.00
11349;BME280;5729;43.570;27.826;2023-08-06T05:22:35;97769.81;;;26.12;100.00
11349;BME280;5729;43.570;27.826;2023-08-06T05:25:00;97764.34;;;26.18;100.00
11349;BME280;5729;43.570;27.826;2023-08-06T05:27:26;97756.56;;;26.22;100.00
11349;BME280;5729;43.570;27.826;2023-08-06T05:29:55;97753.78;;;26.22;100.00
11349;BME280;5729;43.570;27.826;2023-08-06T05:32:21;97756.81;;;26.24;100.00
11349;BME280;5729;43.570;27.826;2023-08-06T05:34:46;97725.69;;;26.18;100.00
11349;BME280;5729;43.570;27.826;2023-08-06T05:37:12;97756.16;;;26.34;100.00
11349;BME280;5729;43.570;27.826;2023-08-06T05:39:37;97756.75;;;26.50;100.00
11349;BME280;5729;43.570;27.826;2023-08-06T05:42:03;97761.03;;;26.56;100.00
11349;BME280;5729;43.570;27.826;2023-08-06T05:44:28;97753.78;;;26.64;100.00
11349;BME280;5729;43.570;27.826;2023-08-06T05:46:54;97751.56;;;26.74;100.00
11349;BME280;5729;43.570;27.826;2023-08-06T05:49:19;97746.31;;;26.87;100.00
11349;BME280;5729;43.570;27.826;2023-08-06T05:51:44;97738.06;;;26.93;100.00
11349;BME280;5729;43.570;27.826;2023-08-06T05:54:10;97752.19;;;27.06;100.00
11349;BME280;5729;43.570;27.826;2023-08-06T05:56:35;97743.41;;;27.24;100.00
11349;BME280;5729;43.570;27.826;2023-08-06T05:59:01;97731.63;;;27.40;100.00
11349;BME280;5729;43.570;27.826;2023-08-06T06:01:26;97738.16;;;27.48;100.00
11349;BME280;5729;43.570;27.826;2023-08-06T06:03:52;97738.88;;;27.55;100.00
11349;BME280;5729;43.570;27.826;2023-08-06T06:06:17;97739.94;;;27.57;100.00
11349;BME280;5729;43.570;27.826;2023-08-06T06:08:44;97740.19;;;27.59;100.00
11349;BME280;5729;43.570;27.826;2023-08-06T06:11:09;97743.22;;;27.72;100.00
11349;BME280;5729;43.570;27.826;2023-08-06T06:13:35;97739.66;;;27.94;100.00
11349;BME280;5729;43.570;27.826;2023-08-06T06:16:00;97738.63;;;28.08;100.00
11349;BME280;5729;43.570;27.826;2023-08-06T06:18:26;97736.13;;;28.22;100.00
11349;BME280;5729;43.570;27.826;2023-08-06T06:20:51;97739.34;;;28.26;100.00
11349;BME280;5729;43.570;27.826;2023-08-06T06:23:16;97725.75;;;28.28;100.00
11349;BME280;5729;43.570;27.826;2023-08-06T06:25:43;97726.69;;;28.47;100.00
11349;BME280;5729;43.570;27.826;2023-08-06T06:28:09;97734.94;;;28.64;100.00
11349;BME280;5729;43.570;27.826;2023-08-06T06:30:34;97725.06;;;28.68;100.00
11349;BME280;5729;43.570;27.826;2023-08-06T06:33:00;97720.03;;;28.72;100.00
11349;BME280;5729;43.570;27.826;2023-08-06T06:35:25;97721.78;;;28.70;100.00
11349;BME280;5729;43.570;27.826;2023-08-06T06:37:51;97719.00;;;28.81;100.00
11349;BME280;5729;43.570;27.826;2023-08-06T06:40:16;97717.28;;;28.78;100.00
11349;BME280;5729;43.570;27.826;2023-08-06T06:42:42;97712.25;;;28.65;100.00
11349;BME280;5729;43.570;27.826;2023-08-06T06:45:08;97708.75;;;28.59;100.00
11349;BME280;5729;43.570;27.826;2023-08-06T06:47:34;97717.88;;;28.48;100.00
11349;BME280;5729;43.570;27.826;2023-08-06T06:49:59;97718.88;;;28.45;100.00
11349;BME280;5729;43.570;27.826;2023-08-06T06:52:24;97719.41;;;28.44;100.00
11349;BME280;5729;43.570;27.826;2023-08-06T06:54:50;97728.44;;;28.44;100.00
11349;BME280;5729;43.570;27.826;2023-08-06T06:57:15;97722.19;;;28.44;100.00
11349;BME280;5729;43.570;27.826;2023-08-06T06:59:41;97720.44;;;28.35;100.00
11349;BME280;5729;43.570;27.826;2023-08-06T07:02:06;97720.19;;;28.39;100.00
11349;BME280;5729;43.570;27.826;2023-08-06T07:04:32;97717.19;;;28.31;100.00
11349;BME280;5729;43.570;27.826;2023-08-06T07:06:57;97706.06;;;28.37;100.00
11349;BME280;5729;43.570;27.826;2023-08-06T07:09:23;97702.03;;;28.38;100.00
11349;BME280;5729;43.570;27.826;2023-08-06T07:11:48;97701.53;;;28.39;100.00
11349;BME280;5729;43.570;27.826;2023-08-06T07:14:13;97706.53;;;28.52;100.00
11349;BME280;5729;43.570;27.826;2023-08-06T07:16:39;97707.72;;;28.62;100.00
11349;BME280;5729;43.570;27.826;2023-08-06T07:19:05;97711.22;;;28.68;100.00
11349;BME280;5729;43.570;27.826;2023-08-06T07:21:31;97718.00;;;28.78;100.00
11349;BME280;5729;43.570;27.826;2023-08-06T07:23:57;97710.09;;;28.99;100.00
11349;BME280;5729;43.570;27.826;2023-08-06T07:26:24;97718.19;;;29.27;100.00
11349;BME280;5729;43.570;27.826;2023-08-06T07:28:50;97718.03;;;29.55;100.00
11349;BME280;5729;43.570;27.826;2023-08-06T07:31:15;97709.94;;;29.81;100.00
11349;BME280;5729;43.570;27.826;2023-08-06T07:33:40;97712.81;;;30.00;100.00
11349;BME280;5729;43.570;27.826;2023-08-06T07:36:11;97710.84;;;30.19;100.00
11349;BME280;5729;43.570;27.826;2023-08-06T07:38:37;97715.00;;;30.31;100.00
11349;BME280;5729;43.570;27.826;2023-08-06T07:41:03;97720.59;;;30.26;100.00
11349;BME280;5729;43.570;27.826;2023-08-06T07:43:29;97701.38;;;30.28;100.00
11349;BME280;5729;43.570;27.826;2023-08-06T07:45:57;97710.66;;;30.36;100.00
11349;BME280;5729;43.570;27.826;2023-08-06T07:48:23;97702.13;;;30.28;100.00
11349;BME280;5729;43.570;27.826;2023-08-06T07:50:52;97699.66;;;30.25;100.00
11349;BME280;5729;43.570;27.826;2023-08-06T07:53:19;97701.47;;;30.22;100.00
11349;BME280;5729;43.570;27.826;2023-08-06T07:55:50;97697.06;;;30.08;100.00
11349;BME280;5729;43.570;27.826;2023-08-06T07:58:17;97701.19;;;30.02;100.00
11349;BME280;5729;43.570;27.826;2023-08-06T08:00:42;97711.66;;;29.90;100.00
11349;BME280;5729;43.570;27.826;2023-08-06T08:03:11;97718.22;;;29.87;100.00
11349;BME280;5729;43.570;27.826;2023-08-06T08:05:37;97713.16;;;29.91;100.00
11349;BME280;5729;43.570;27.826;2023-08-06T08:08:03;97707.28;;;29.94;100.00
11349;BME280;5729;43.570;27.826;2023-08-06T08:10:28;97691.00;;;29.80;100.00
11349;BME280;5729;43.570;27.826;2023-08-06T08:12:54;97703.84;;;30.13;100.00
11349;BME280;5729;43.570;27.826;2023-08-06T08:15:19;97712.06;;;30.24;100.00
11349;BME280;5729;43.570;27.826;2023-08-06T08:17:45;97701.34;;;30.33;100.00
11349;BME280;5729;43.570;27.826;2023-08-06T08:20:12;97708.72;;;30.50;100.00
11349;BME280;5729;43.570;27.826;2023-08-06T08:22:38;97709.16;;;31.29;100.00
11349;BME280;5729;43.570;27.826;2023-08-06T08:25:03;97699.06;;;33.03;100.00
11349;BME280;5729;43.570;27.826;2023-08-06T08:27:29;97709.03;;;35.10;100.00
11349;BME280;5729;43.570;27.826;2023-08-06T08:29:55;97701.31;;;36.55;100.00
11349;BME280;5729;43.570;27.826;2023-08-06T08:32:20;97711.25;;;37.54;95.59
11349;BME280;5729;43.570;27.826;2023-08-06T08:34:46;97719.97;;;38.94;90.93
11349;BME280;5729;43.570;27.826;2023-08-06T08:37:11;97710.59;;;39.81;74.19
11349;BME280;5729;43.570;27.826;2023-08-06T08:39:37;97709.63;;;40.25;68.73
11349;BME280;5729;43.570;27.826;2023-08-06T08:42:03;97705.47;;;40.84;67.39
11349;BME280;5729;43.570;27.826;2023-08-06T08:44:30;97695.50;;;41.33;58.12
11349;BME280;5729;43.570;27.826;2023-08-06T08:46:57;97689.31;;;41.87;59.29
11349;BME280;5729;43.570;27.826;2023-08-06T08:49:23;97686.81;;;42.78;51.36
11349;BME280;5729;43.570;27.826;2023-08-06T08:51:50;97679.88;;;43.61;51.45
11349;BME280;5729;43.570;27.826;2023-08-06T08:54:18;97673.22;;;44.54;48.01
11349;BME280;5729;43.570;27.826;2023-08-06T08:56:45;97669.88;;;44.82;45.31
11349;BME280;5729;43.570;27.826;2023-08-06T08:59:11;97669.88;;;45.21;40.31
11349;BME280;5729;43.570;27.826;2023-08-06T09:01:37;97665.31;;;45.85;39.30
11349;BME280;5729;43.570;27.826;2023-08-06T09:04:05;97654.66;;;46.13;40.29
11349;BME280;5729;43.570;27.826;2023-08-06T09:06:33;97657.81;;;46.48;39.90
11349;BME280;5729;43.570;27.826;2023-08-06T09:09:10;97644.56;;;46.39;37.59
11349;BME280;5729;43.570;27.826;2023-08-06T09:11:43;97649.53;;;46.84;35.48
11349;BME280;5729;43.570;27.826;2023-08-06T09:14:08;97653.44;;;47.06;35.88
11349;BME280;5729;43.570;27.826;2023-08-06T09:16:37;97640.22;;;46.99;36.50
11349;BME280;5729;43.570;27.826;2023-08-06T09:19:10;97635.03;;;46.48;35.65
11349;BME280;5729;43.570;27.826;2023-08-06T09:21:42;97626.94;;;46.00;37.38
11349;BME280;5729;43.570;27.826;2023-08-06T09:24:09;97640.56;;;45.87;37.16
11349;BME280;5729;43.570;27.826;2023-08-06T09:26:37;97631.25;;;45.05;39.89
11349;BME280;5729;43.570;27.826;2023-08-06T09:29:05;97627.56;;;44.89;38.63
11349;BME280;5729;43.570;27.826;2023-08-06T09:31:40;97625.66;;;44.54;42.71
11349;BME280;5729;43.570;27.826;2023-08-06T09:34:16;97619.19;;;45.18;40.80
11349;BME280;5729;43.570;27.826;2023-08-06T09:36:46;97617.28;;;45.50;41.03
11349;BME280;5729;43.570;27.826;2023-08-06T09:39:14;97605.09;;;45.34;37.55
11349;BME280;5729;43.570;27.826;2023-08-06T09:41:40;97601.91;;;45.00;39.92
11349;BME280;5729;43.570;27.826;2023-08-06T09:44:18;97601.09;;;45.52;42.32
11349;BME280;5729;43.570;27.826;2023-08-06T09:46:52;97597.81;;;46.76;36.37
11349;BME280;5729;43.570;27.826;2023-08-06T09:49:19;97595.94;;;46.35;36.39
11349;BME280;5729;43.570;27.826;2023-08-06T09:51:46;97591.75;;;46.99;35.41
11349;BME280;5729;43.570;27.826;2023-08-06T09:54:15;97586.53;;;47.58;33.59
11349;BME280;5729;43.570;27.826;2023-08-06T09:56:42;97583.41;;;47.03;36.23
11349;BME280;5729;43.570;27.826;2023-08-06T09:59:07;97591.34;;;48.23;33.66
11349;BME280;5729;43.570;27.826;2023-08-06T10:01:34;97585.94;;;48.86;31.63
11349;BME280;5729;43.570;27.826;2023-08-06T10:04:02;97574.31;;;48.62;30.98
11349;BME280;5729;43.570;27.826;2023-08-06T10:06:29;97567.38;;;46.96;34.69
11349;BME280;5729;43.570;27.826;2023-08-06T10:08:54;97555.44;;;46.84;32.78
11349;BME280;5729;43.570;27.826;2023-08-06T10:11:22;97559.59;;;45.90;36.16
11349;BME280;5729;43.570;27.826;2023-08-06T10:13:57;97574.97;;;45.15;36.48
11349;BME280;5729;43.570;27.826;2023-08-06T10:16:23;97567.88;;;45.43;38.15
11349;BME280;5729;43.570;27.826;2023-08-06T10:18:50;97564.28;;;46.29;36.73
11349;BME280;5729;43.570;27.826;2023-08-06T10:21:15;97565.53;;;46.87;35.34
11349;BME280;5729;43.570;27.826;2023-08-06T10:23:41;97556.19;;;47.33;33.41
11349;BME280;5729;43.570;27.826;2023-08-06T10:26:07;97548.22;;;46.51;35.46
11349;BME280;5729;43.570;27.826;2023-08-06T10:28:39;97540.22;;;46.32;34.68
11349;BME280;5729;43.570;27.826;2023-08-06T10:31:05;97534.81;;;46.54;39.35
11349;BME280;5729;43.570;27.826;2023-08-06T10:33:45;97541.28;;;47.68;30.86
11349;BME280;5729;43.570;27.826;2023-08-06T10:36:11;97535.44;;;48.18;32.79
11349;BME280;5729;43.570;27.826;2023-08-06T10:38:49;97534.00;;;47.14;32.53
11349;BME280;5729;43.570;27.826;2023-08-06T10:41:29;97527.00;;;46.54;32.20
11349;BME280;5729;43.570;27.826;2023-08-06T10:44:12;97537.75;;;46.56;32.42
11349;BME280;5729;43.570;27.826;2023-08-06T10:46:39;97532.81;;;45.82;32.11
11349;BME280;5729;43.570;27.826;2023-08-06T10:49:04;97535.13;;;45.42;31.81
11349;BME280;5729;43.570;27.826;2023-08-06T10:51:30;97529.03;;;43.53;34.76
11349;BME280;5729;43.570;27.826;2023-08-06T10:53:56;97508.59;;;41.93;40.35
11349;BME280;5729;43.570;27.826;2023-08-06T10:56:24;97523.31;;;42.57;37.06
11349;BME280;5729;43.570;27.826;2023-08-06T10:58:56;97514.91;;;43.78;38.35
11349;BME280;5729;43.570;27.826;2023-08-06T11:01:23;97516.34;;;44.55;35.52
11349;BME280;5729;43.570;27.826;2023-08-06T11:03:49;97508.47;;;45.36;36.33
11349;BME280;5729;43.570;27.826;2023-08-06T11:06:22;97515.06;;;46.26;33.51
11349;BME280;5729;43.570;27.826;2023-08-06T11:08:52;97507.34;;;46.76;31.59
11349;BME280;5729;43.570;27.826;2023-08-06T11:11:18;97500.34;;;46.79;29.65
11349;BME280;5729;43.570;27.826;2023-08-06T11:13:48;97494.47;;;46.75;31.05
11349;BME280;5729;43.570;27.826;2023-08-06T11:16:15;97489.81;;;46.99;30.69
11349;BME280;5729;43.570;27.826;2023-08-06T11:18:42;97486.34;;;46.85;29.64
11349;BME280;5729;43.570;27.826;2023-08-06T11:21:07;97482.47;;;46.00;29.35
11349;BME280;5729;43.570;27.826;2023-08-06T11:23:34;97463.44;;;45.60;32.90
11349;BME280;5729;43.570;27.826;2023-08-06T11:25:59;97438.84;;;45.37;32.72
11349;BME280;5729;43.570;27.826;2023-08-06T11:28:25;97452.22;;;45.34;32.12
11349;BME280;5729;43.570;27.826;2023-08-06T11:30:51;97443.31;;;44.99;32.77
11349;BME280;5729;43.570;27.826;2023-08-06T11:33:21;97448.16;;;45.10;32.31
11349;BME280;5729;43.570;27.826;2023-08-06T11:35:48;97458.88;;;44.43;35.20
11349;BME280;5729;43.570;27.826;2023-08-06T11:38:14;97452.31;;;43.88;34.52
11349;BME280;5729;43.570;27.826;2023-08-06T11:40:43;97446.06;;;42.92;32.49
11349;BME280;5729;43.570;27.826;2023-08-06T11:43:09;97441.69;;;41.86;38.56
11349;BME280;5729;43.570;27.826;2023-08-06T11:45:35;97425.94;;;41.07;35.67
11349;BME280;5729;43.570;27.826;2023-08-06T11:48:01;97416.63;;;40.02;40.96
11349;BME280;5729;43.570;27.826;2023-08-06T11:50:27;97424.28;;;39.42;41.77
11349;BME280;5729;43.570;27.826;2023-08-06T11:53:02;97428.41;;;39.12;47.13
11349;BME280;5729;43.570;27.826;2023-08-06T11:55:28;97423.19;;;38.43;42.96
11349;BME280;5729;43.570;27.826;2023-08-06T11:57:54;97427.94;;;37.87;45.87
11349;BME280;5729;43.570;27.826;2023-08-06T12:00:23;97432.72;;;37.32;54.20
11349;BME280;5729;43.570;27.826;2023-08-06T12:02:49;97443.19;;;36.72;54.73
11349;BME280;5729;43.570;27.826;2023-08-06T12:05:17;97444.09;;;36.25;65.60
11349;BME280;5729;43.570;27.826;2023-08-06T12:07:56;97458.47;;;35.89;71.54
11349;BME280;5729;43.570;27.826;2023-08-06T12:10:26;97471.47;;;35.62;79.65
11349;BME280;5729;43.570;27.826;2023-08-06T12:12:52;97513.22;;;35.20;95.78
11349;BME280;5729;43.570;27.826;2023-08-06T12:15:18;97650.47;;;34.69;100.00
11349;BME280;5729;43.570;27.826;2023-08-06T12:17:44;97695.72;;;31.78;100.00
11349;BME280;5729;43.570;27.826;2023-08-06T12:20:10;97722.44;;;29.39;100.00
11349;BME280;5729;43.570;27.826;2023-08-06T12:22:36;97765.28;;;27.17;100.00
11349;BME280;5729;43.570;27.826;2023-08-06T12:25:08;97794.59;;;25.70;100.00
11349;BME280;5729;43.570;27.826;2023-08-06T12:27:45;97798.78;;;24.73;100.00
11349;BME280;5729;43.570;27.826;2023-08-06T12:30:12;97779.00;;;23.99;100.00
11349;BME280;5729;43.570;27.826;2023-08-06T12:32:38;97781.69;;;23.64;100.00
11349;BME280;5729;43.570;27.826;2023-08-06T12:35:04;97781.00;;;23.25;100.00
11349;BME280;5729;43.570;27.826;2023-08-06T12:37:32;97778.50;;;22.97;100.00
11349;BME280;5729;43.570;27.826;2023-08-06T12:39:57;97757.44;;;22.94;100.00
11349;BME280;5729;43.570;27.826;2023-08-06T12:42:23;97775.47;;;23.10;100.00
11349;BME280;5729;43.570;27.826;2023-08-06T12:44:49;97757.28;;;23.12;100.00
11349;BME280;5729;43.570;27.826;2023-08-06T12:47:16;97776.16;;;23.49;100.00
11349;BME280;5729;43.570;27.826;2023-08-06T12:49:41;97776.84;;;23.88;100.00
11349;BME280;5729;43.570;27.826;2023-08-06T12:52:07;97752.19;;;24.14;100.00
11349;BME280;5729;43.570;27.826;2023-08-06T12:54:34;97727.91;;;24.12;100.00
11349;BME280;5729;43.570;27.826;2023-08-06T12:57:02;97697.47;;;24.01;100.00
11349;BME280;5729;43.570;27.826;2023-08-06T12:59:28;97714.91;;;24.13;100.00